createdAt,value
2019-03-21T00:00:42.861Z,0.00
2019-03-21T00:01:42.860Z,0.00
2019-03-21T00:02:42.848Z,0.00
2019-03-21T00:03:42.848Z,0.00
2019-03-21T00:04:42.841Z,0.00
2019-03-21T00:05:42.822Z,0.00
2019-03-21T00:06:42.851Z,0.00
2019-03-21T00:07:42.798Z,0.00
2019-03-21T00:08:43.297Z,0.00
2019-03-21T00:09:42.781Z,0.00
2019-03-21T00:10:42.774Z,0.00
2019-03-21T00:11:42.751Z,0.00
2019-03-21T00:12:42.727Z,0.00
2019-03-21T00:13:42.741Z,0.00
2019-03-21T00:14:42.738Z,0.00
2019-03-21T00:15:42.707Z,0.00
2019-03-21T00:16:42.698Z,0.00
2019-03-21T00:17:42.721Z,0.00
2019-03-21T00:18:42.667Z,0.00
2019-03-21T00:19:42.672Z,0.00
2019-03-21T00:20:42.659Z,0.00
2019-03-21T00:21:42.628Z,0.00
2019-03-21T00:22:42.597Z,0.00
2019-03-21T00:23:42.620Z,0.00
2019-03-21T00:24:42.580Z,0.00
2019-03-21T00:25:43.260Z,0.00
2019-03-21T00:26:42.587Z,0.00
2019-03-21T00:27:42.569Z,0.00
2019-03-21T00:28:42.585Z,0.00
2019-03-21T00:29:42.544Z,0.00
2019-03-21T00:30:42.547Z,0.00
2019-03-21T00:31:42.545Z,0.00
2019-03-21T00:32:42.519Z,0.00
2019-03-21T00:33:42.523Z,0.00
2019-03-21T00:34:42.515Z,0.00
2019-03-21T00:35:42.476Z,0.00
2019-03-21T00:36:42.480Z,0.00
2019-03-21T00:37:42.449Z,0.00
2019-03-21T00:38:42.432Z,0.00
2019-03-21T00:39:42.444Z,0.00
2019-03-21T00:40:44.162Z,0.00
2019-03-21T00:41:42.415Z,0.00
2019-03-21T00:42:42.405Z,0.00
2019-03-21T00:43:42.388Z,0.00
2019-03-21T00:44:42.396Z,0.00
2019-03-21T00:45:42.356Z,0.00
2019-03-21T00:46:42.350Z,0.00
2019-03-21T00:47:42.505Z,0.00
2019-03-21T00:48:42.339Z,0.00
2019-03-21T00:49:42.365Z,0.00
2019-03-21T00:50:42.307Z,0.00
2019-03-21T00:51:42.294Z,0.00
2019-03-21T00:52:42.253Z,0.00
2019-03-21T00:53:42.249Z,0.00
2019-03-21T00:54:42.293Z,0.00
2019-03-21T00:55:43.247Z,0.00
2019-03-21T00:56:42.881Z,0.00
2019-03-21T00:57:42.982Z,0.00
2019-03-21T00:58:42.189Z,0.00
2019-03-21T00:59:42.226Z,0.00
2019-03-21T01:00:42.744Z,0.00
2019-03-21T01:01:42.164Z,0.00
2019-03-21T01:02:42.196Z,0.00
2019-03-21T01:03:42.136Z,0.00
2019-03-21T01:04:42.156Z,0.00
2019-03-21T01:05:42.152Z,0.00
2019-03-21T01:06:42.110Z,0.00
2019-03-21T01:07:42.129Z,0.00
2019-03-21T01:08:42.109Z,0.00
2019-03-21T01:09:42.087Z,0.00
2019-03-21T01:10:42.100Z,0.00
2019-03-21T01:11:42.082Z,0.00
2019-03-21T01:12:42.079Z,0.00
2019-03-21T01:13:42.050Z,0.00
2019-03-21T01:14:42.051Z,0.00
2019-03-21T01:15:42.024Z,0.00
2019-03-21T01:16:42.024Z,0.00
2019-03-21T01:17:42.022Z,0.00
2019-03-21T01:18:41.981Z,0.00
2019-03-21T01:19:41.972Z,0.00
2019-03-21T01:20:41.977Z,0.00
2019-03-21T01:21:41.941Z,0.00
2019-03-21T01:22:41.945Z,0.00
2019-03-21T01:23:42.036Z,0.00
2019-03-21T01:24:41.942Z,0.00
2019-03-21T01:25:41.945Z,0.00
2019-03-21T01:26:41.889Z,0.00
2019-03-21T01:27:41.889Z,0.00
2019-03-21T01:28:41.863Z,0.00
2019-03-21T01:29:41.874Z,0.00
2019-03-21T01:30:41.857Z,0.00
2019-03-21T01:31:41.864Z,0.00
2019-03-21T01:32:41.837Z,0.00
2019-03-21T01:33:41.801Z,0.00
2019-03-21T01:34:41.819Z,0.00
2019-03-21T01:35:41.835Z,0.00
2019-03-21T01:36:41.810Z,0.00
2019-03-21T01:37:41.785Z,0.00
2019-03-21T01:38:41.779Z,0.00
2019-03-21T01:39:41.775Z,0.00
2019-03-21T01:40:41.763Z,0.00
2019-03-21T01:41:41.723Z,0.00
2019-03-21T01:42:41.726Z,0.00
2019-03-21T01:43:41.700Z,0.00
2019-03-21T01:44:41.712Z,0.00
2019-03-21T01:45:41.721Z,0.00
2019-03-21T01:46:41.660Z,0.00
2019-03-21T01:47:41.670Z,0.00
2019-03-21T01:48:41.961Z,0.00
2019-03-21T01:49:41.987Z,0.00
2019-03-21T01:50:41.637Z,0.00
2019-03-21T01:51:41.619Z,0.00
2019-03-21T01:52:41.648Z,0.00
2019-03-21T01:53:41.586Z,0.00
2019-03-21T01:54:41.595Z,0.00
2019-03-21T01:55:41.609Z,0.00
2019-03-21T01:56:41.598Z,0.00
2019-03-21T01:57:41.560Z,0.00
2019-03-21T01:58:41.574Z,0.00
2019-03-21T01:59:41.519Z,0.00
2019-03-21T02:00:41.523Z,0.00
2019-03-21T02:01:41.510Z,0.00
2019-03-21T02:02:41.476Z,0.00
2019-03-21T02:03:41.472Z,0.00
2019-03-21T02:04:41.461Z,0.00
2019-03-21T02:05:41.560Z,0.00
2019-03-21T02:06:41.482Z,0.00
2019-03-21T02:07:41.457Z,0.00
2019-03-21T02:08:41.426Z,0.00
2019-03-21T02:09:41.425Z,0.00
2019-03-21T02:10:41.453Z,0.00
2019-03-21T02:11:41.381Z,0.00
2019-03-21T02:12:41.367Z,0.00
2019-03-21T02:13:41.394Z,0.00
2019-03-21T02:14:51.545Z,0.00
2019-03-21T02:15:41.363Z,0.00
2019-03-21T02:16:41.339Z,0.00
2019-03-21T02:17:41.317Z,0.00
2019-03-21T02:18:41.318Z,0.00
2019-03-21T02:19:41.318Z,0.00
2019-03-21T02:20:41.306Z,0.00
2019-03-21T02:21:41.278Z,0.00
2019-03-21T02:22:41.257Z,0.00
2019-03-21T02:23:41.245Z,0.00
2019-03-21T02:24:41.267Z,0.00
2019-03-21T02:25:41.275Z,0.00
2019-03-21T02:26:41.247Z,0.00
2019-03-21T02:27:41.204Z,0.00
2019-03-21T02:28:41.213Z,0.00
2019-03-21T02:29:41.185Z,0.00
2019-03-21T02:30:41.264Z,0.00
2019-03-21T02:31:41.738Z,0.00
2019-03-21T02:32:41.186Z,0.00
2019-03-21T02:33:41.140Z,0.00
2019-03-21T02:34:41.151Z,0.00
2019-03-21T02:35:41.132Z,0.00
2019-03-21T02:36:42.556Z,0.00
2019-03-21T02:37:41.124Z,0.00
2019-03-21T02:38:41.115Z,0.00
2019-03-21T02:39:41.116Z,0.00
2019-03-21T02:40:41.883Z,0.00
2019-03-21T02:41:41.089Z,0.00
2019-03-21T02:42:41.061Z,0.00
2019-03-21T02:43:41.589Z,0.00
2019-03-21T02:44:41.175Z,0.00
2019-03-21T02:45:41.022Z,0.00
2019-03-21T02:46:41.044Z,0.00
2019-03-21T02:47:41.291Z,0.00
2019-03-21T02:48:41.028Z,0.00
2019-03-21T02:49:40.965Z,0.00
2019-03-21T02:50:41.004Z,0.00
2019-03-21T02:51:41.159Z,0.00
2019-03-21T02:52:40.942Z,0.00
2019-03-21T02:53:40.928Z,0.00
2019-03-21T02:54:40.945Z,0.00
2019-03-21T02:55:40.915Z,0.00
2019-03-21T02:56:40.927Z,0.00
2019-03-21T02:57:41.746Z,0.00
2019-03-21T02:58:40.897Z,0.00
2019-03-21T02:59:40.972Z,0.00
2019-03-21T03:00:40.835Z,0.00
2019-03-21T03:01:40.868Z,0.00
2019-03-21T03:02:40.822Z,0.00
2019-03-21T03:03:40.818Z,0.00
2019-03-21T03:04:40.849Z,0.00
2019-03-21T03:05:40.821Z,0.00
2019-03-21T03:06:40.857Z,0.00
2019-03-21T03:07:40.819Z,0.00
2019-03-21T03:08:40.751Z,0.00
2019-03-21T03:09:40.763Z,0.00
2019-03-21T03:10:40.742Z,0.00
2019-03-21T03:11:40.739Z,0.00
2019-03-21T03:12:40.701Z,0.00
2019-03-21T03:13:40.706Z,0.00
2019-03-21T03:14:40.682Z,0.00
2019-03-21T03:15:40.750Z,0.00
2019-03-21T03:16:40.731Z,0.00
2019-03-21T03:17:40.660Z,0.00
2019-03-21T03:18:40.635Z,0.00
2019-03-21T03:19:40.640Z,0.00
2019-03-21T03:20:40.618Z,0.00
2019-03-21T03:21:40.630Z,0.00
2019-03-21T03:22:41.253Z,0.00
2019-03-21T03:23:40.627Z,0.00
2019-03-21T03:24:40.587Z,0.00
2019-03-21T03:25:40.575Z,0.00
2019-03-21T03:26:40.642Z,0.00
2019-03-21T03:27:40.550Z,0.00
2019-03-21T03:28:40.530Z,0.00
2019-03-21T03:29:40.530Z,0.00
2019-03-21T03:30:40.565Z,0.00
2019-03-21T03:31:40.521Z,0.00
2019-03-21T03:32:40.914Z,0.00
2019-03-21T03:33:40.920Z,0.00
2019-03-21T03:34:40.460Z,0.00
2019-03-21T03:35:40.452Z,0.00
2019-03-21T03:36:40.473Z,0.00
2019-03-21T03:37:41.242Z,0.00
2019-03-21T03:38:40.421Z,0.00
2019-03-21T03:39:40.407Z,0.00
2019-03-21T03:40:40.410Z,0.00
2019-03-21T03:41:40.437Z,0.00
2019-03-21T03:42:40.384Z,0.00
2019-03-21T03:43:40.397Z,0.00
2019-03-21T03:44:40.349Z,0.00
2019-03-21T03:45:40.339Z,0.00
2019-03-21T03:46:40.410Z,0.00
2019-03-21T03:47:40.322Z,0.00
2019-03-21T03:48:40.348Z,0.00
2019-03-21T03:49:40.285Z,0.00
2019-03-21T03:50:40.285Z,0.00
2019-03-21T03:51:40.307Z,0.00
2019-03-21T03:52:41.266Z,0.00
2019-03-21T03:53:42.433Z,0.00
2019-03-21T03:54:40.239Z,0.00
2019-03-21T03:55:40.246Z,0.00
2019-03-21T03:56:40.223Z,0.00
2019-03-21T03:57:40.228Z,0.00
2019-03-21T03:58:40.228Z,0.00
2019-03-21T03:59:40.171Z,0.00
2019-03-21T04:00:40.173Z,0.00
2019-03-21T04:01:40.168Z,0.00
2019-03-21T04:02:40.165Z,0.00
2019-03-21T04:03:40.182Z,0.00
2019-03-21T04:04:40.117Z,0.00
2019-03-21T04:05:40.189Z,0.00
2019-03-21T04:06:40.130Z,0.00
2019-03-21T04:07:40.723Z,0.00
2019-03-21T04:08:40.074Z,0.00
2019-03-21T04:09:40.081Z,0.00
2019-03-21T04:10:40.090Z,0.00
2019-03-21T04:11:40.047Z,0.00
2019-03-21T04:12:40.078Z,0.00
2019-03-21T04:13:40.024Z,0.00
2019-03-21T04:14:40.010Z,0.00
2019-03-21T04:15:51.658Z,0.00
2019-03-21T04:16:39.986Z,0.00
2019-03-21T04:17:40.000Z,0.00
2019-03-21T04:18:40.031Z,0.00
2019-03-21T04:19:39.990Z,0.00
2019-03-21T04:20:39.942Z,0.00
2019-03-21T04:21:39.957Z,0.00
2019-03-21T04:22:39.951Z,0.00
2019-03-21T04:23:39.916Z,0.00
2019-03-21T04:24:39.899Z,0.00
2019-03-21T04:25:39.881Z,0.00
2019-03-21T04:26:39.988Z,0.00
2019-03-21T04:27:39.878Z,0.00
2019-03-21T04:28:39.891Z,0.00
2019-03-21T04:29:39.843Z,0.00
2019-03-21T04:30:39.852Z,0.00
2019-03-21T04:31:39.822Z,0.00
2019-03-21T04:32:39.830Z,0.00
2019-03-21T04:33:39.812Z,0.00
2019-03-21T04:34:39.806Z,0.00
2019-03-21T04:35:39.774Z,0.00
2019-03-21T04:36:39.808Z,0.00
2019-03-21T04:37:39.765Z,0.00
2019-03-21T04:38:39.770Z,0.00
2019-03-21T04:39:39.756Z,0.00
2019-03-21T04:40:39.718Z,0.00
2019-03-21T04:41:39.710Z,0.00
2019-03-21T04:42:39.707Z,0.00
2019-03-21T04:43:39.689Z,0.00
2019-03-21T04:44:39.706Z,0.00
2019-03-21T04:45:39.703Z,0.00
2019-03-21T04:46:39.689Z,0.00
2019-03-21T04:47:39.672Z,0.00
2019-03-21T04:48:39.631Z,0.00
2019-03-21T04:49:39.627Z,0.00
2019-03-21T04:50:39.602Z,0.00
2019-03-21T04:51:39.616Z,0.00
2019-03-21T04:52:39.604Z,0.00
2019-03-21T04:53:39.580Z,0.00
2019-03-21T04:54:39.565Z,0.00
2019-03-21T04:55:39.552Z,0.00
2019-03-21T04:56:39.533Z,0.00
2019-03-21T04:57:39.558Z,0.00
2019-03-21T04:58:39.516Z,0.00
2019-03-21T04:59:39.511Z,0.00
2019-03-21T05:00:39.496Z,0.00
2019-03-21T05:01:39.492Z,0.00
2019-03-21T05:02:39.548Z,0.00
2019-03-21T05:03:39.466Z,0.00
2019-03-21T05:04:39.450Z,0.00
2019-03-21T05:05:39.449Z,0.00
2019-03-21T05:06:39.428Z,0.00
2019-03-21T05:07:39.450Z,0.00
2019-03-21T05:08:39.413Z,0.00
2019-03-21T05:09:39.396Z,0.00
2019-03-21T05:10:39.382Z,0.00
2019-03-21T05:11:39.393Z,0.00
2019-03-21T05:12:39.391Z,0.00
2019-03-21T05:13:39.368Z,0.00
2019-03-21T05:14:39.339Z,0.00
2019-03-21T05:15:39.335Z,0.00
2019-03-21T05:16:39.338Z,0.00
2019-03-21T05:17:39.361Z,0.00
2019-03-21T05:18:39.334Z,0.00
2019-03-21T05:19:39.365Z,0.00
2019-03-21T05:20:39.280Z,0.00
2019-03-21T05:21:39.263Z,0.00
2019-03-21T05:22:39.286Z,0.00
2019-03-21T05:23:39.289Z,4.00
2019-03-21T05:24:39.234Z,4.00
2019-03-21T05:25:39.223Z,0.00
2019-03-21T05:26:39.218Z,0.00
2019-03-21T05:27:39.234Z,0.00
2019-03-21T05:28:39.180Z,4.00
2019-03-21T05:29:39.198Z,4.00
2019-03-21T05:30:39.814Z,4.00
2019-03-21T05:31:39.174Z,4.00
2019-03-21T05:32:39.146Z,4.00
2019-03-21T05:33:39.161Z,4.00
2019-03-21T05:34:39.132Z,4.00
2019-03-21T05:35:39.107Z,4.00
2019-03-21T05:36:39.118Z,8.00
2019-03-21T05:37:39.137Z,4.00
2019-03-21T05:38:39.088Z,4.00
2019-03-21T05:39:39.057Z,8.00
2019-03-21T05:40:39.063Z,8.00
2019-03-21T05:41:39.059Z,4.00
2019-03-21T05:42:39.031Z,8.00
2019-03-21T05:43:39.725Z,8.00
2019-03-21T05:44:39.058Z,12.00
2019-03-21T05:45:39.709Z,8.00
2019-03-21T05:46:38.973Z,12.00
2019-03-21T05:47:38.973Z,12.00
2019-03-21T05:48:38.984Z,12.00
2019-03-21T05:49:38.972Z,12.00
2019-03-21T05:50:38.955Z,12.00
2019-03-21T05:51:38.931Z,12.00
2019-03-21T05:52:38.925Z,16.00
2019-03-21T05:53:38.931Z,12.00
2019-03-21T05:54:38.887Z,16.00
2019-03-21T05:55:38.884Z,16.00
2019-03-21T05:56:38.869Z,16.00
2019-03-21T05:57:38.862Z,20.00
2019-03-21T05:58:38.858Z,16.00
2019-03-21T05:59:38.882Z,20.00
2019-03-21T06:00:40.089Z,20.00
2019-03-21T06:01:38.832Z,20.00
2019-03-21T06:02:38.862Z,20.00
2019-03-21T06:03:38.810Z,20.00
2019-03-21T06:04:38.773Z,24.00
2019-03-21T06:05:38.765Z,24.00
2019-03-21T06:06:38.765Z,24.00
2019-03-21T06:07:38.742Z,24.00
2019-03-21T06:08:38.810Z,28.00
2019-03-21T06:09:39.744Z,24.00
2019-03-21T06:10:38.727Z,24.00
2019-03-21T06:11:39.738Z,28.00
2019-03-21T06:12:38.706Z,28.00
2019-03-21T06:13:38.702Z,28.00
2019-03-21T06:14:39.224Z,32.00
2019-03-21T06:15:38.730Z,32.00
2019-03-21T06:16:38.653Z,28.00
2019-03-21T06:17:38.645Z,32.00
2019-03-21T06:18:38.635Z,28.00
2019-03-21T06:19:38.682Z,32.00
2019-03-21T06:20:38.607Z,32.00
2019-03-21T06:21:38.591Z,84.00
2019-03-21T06:22:38.576Z,120.00
2019-03-21T06:23:38.593Z,124.00
2019-03-21T06:24:38.550Z,124.00
2019-03-21T06:25:38.545Z,124.00
2019-03-21T06:26:38.556Z,124.00
2019-03-21T06:27:38.556Z,124.00
2019-03-21T06:28:38.538Z,124.00
2019-03-21T06:29:39.214Z,124.00
2019-03-21T06:30:38.548Z,124.00
2019-03-21T06:31:38.485Z,124.00
2019-03-21T06:32:38.480Z,124.00
2019-03-21T06:33:38.549Z,124.00
2019-03-21T06:34:38.465Z,124.00
2019-03-21T06:35:38.431Z,128.00
2019-03-21T06:36:38.441Z,124.00
2019-03-21T06:37:38.424Z,124.00
2019-03-21T06:38:38.423Z,124.00
2019-03-21T06:39:38.448Z,128.00
2019-03-21T06:40:38.377Z,128.00
2019-03-21T06:41:38.403Z,124.00
2019-03-21T06:42:39.120Z,128.00
2019-03-21T06:43:38.357Z,128.00
2019-03-21T06:44:38.420Z,128.00
2019-03-21T06:45:47.603Z,128.00
2019-03-21T06:46:48.818Z,124.00
2019-03-21T06:47:38.295Z,128.00
2019-03-21T06:48:38.305Z,112.00
2019-03-21T06:49:38.434Z,132.00
2019-03-21T06:50:38.303Z,136.00
2019-03-21T06:51:38.247Z,136.00
2019-03-21T06:52:38.242Z,132.00
2019-03-21T06:53:38.274Z,132.00
2019-03-21T06:54:38.273Z,136.00
2019-03-21T06:55:38.245Z,136.00
2019-03-21T06:56:38.220Z,140.00
2019-03-21T06:57:38.485Z,136.00
2019-03-21T06:58:38.227Z,140.00
2019-03-21T06:59:38.165Z,140.00
2019-03-21T07:00:38.163Z,140.00
2019-03-21T07:01:38.148Z,140.00
2019-03-21T07:02:38.184Z,144.00
2019-03-21T07:03:38.138Z,140.00
2019-03-21T07:04:38.121Z,140.00
2019-03-21T07:05:38.096Z,144.00
2019-03-21T07:06:38.111Z,140.00
2019-03-21T07:07:38.072Z,144.00
2019-03-21T07:08:38.061Z,144.00
2019-03-21T07:09:38.064Z,144.00
2019-03-21T07:10:38.099Z,148.00
2019-03-21T07:11:38.038Z,148.00
2019-03-21T07:12:38.404Z,148.00
2019-03-21T07:13:38.004Z,148.00
2019-03-21T07:14:38.013Z,148.00
2019-03-21T07:15:37.984Z,148.00
2019-03-21T07:16:37.976Z,148.00
2019-03-21T07:17:37.981Z,152.00
2019-03-21T07:18:40.049Z,148.00
2019-03-21T07:19:37.957Z,148.00
2019-03-21T07:20:38.031Z,148.00
2019-03-21T07:21:37.916Z,152.00
2019-03-21T07:22:38.615Z,152.00
2019-03-21T07:23:37.899Z,152.00
2019-03-21T07:24:37.926Z,152.00
2019-03-21T07:25:37.886Z,148.00
2019-03-21T07:26:38.021Z,152.00
2019-03-21T07:27:37.854Z,152.00
2019-03-21T07:28:38.697Z,152.00
2019-03-21T07:29:37.871Z,152.00
2019-03-21T07:30:37.843Z,156.00
2019-03-21T07:31:37.859Z,152.00
2019-03-21T07:32:37.938Z,156.00
2019-03-21T07:33:37.819Z,156.00
2019-03-21T07:34:37.869Z,156.00
2019-03-21T07:35:37.797Z,152.00
2019-03-21T07:36:37.780Z,156.00
2019-03-21T07:37:37.788Z,156.00
2019-03-21T07:38:37.755Z,156.00
2019-03-21T07:39:37.803Z,156.00
2019-03-21T07:40:37.701Z,160.00
2019-03-21T07:41:37.696Z,160.00
2019-03-21T07:42:37.688Z,160.00
2019-03-21T07:43:37.781Z,160.00
2019-03-21T07:44:37.692Z,160.00
2019-03-21T07:45:37.654Z,160.00
2019-03-21T07:46:37.660Z,160.00
2019-03-21T07:47:37.645Z,160.00
2019-03-21T07:48:37.624Z,164.00
2019-03-21T07:49:37.610Z,160.00
2019-03-21T07:50:37.615Z,164.00
2019-03-21T07:51:37.588Z,164.00
2019-03-21T07:52:37.564Z,168.00
2019-03-21T07:53:37.571Z,168.00
2019-03-21T07:54:37.578Z,168.00
2019-03-21T07:55:37.547Z,168.00
2019-03-21T07:56:37.558Z,172.00
2019-03-21T07:57:37.517Z,168.00
2019-03-21T07:58:37.513Z,172.00
2019-03-21T07:59:37.529Z,172.00
2019-03-21T08:00:37.488Z,168.00
2019-03-21T08:01:37.477Z,168.00
2019-03-21T08:02:37.465Z,176.00
2019-03-21T08:03:37.474Z,176.00
2019-03-21T08:04:37.453Z,176.00
2019-03-21T08:05:40.647Z,176.00
2019-03-21T08:06:37.421Z,172.00
2019-03-21T08:07:37.396Z,172.00
2019-03-21T08:08:37.386Z,176.00
2019-03-21T08:09:37.504Z,172.00
2019-03-21T08:10:37.369Z,172.00
2019-03-21T08:11:37.721Z,176.00
2019-03-21T08:12:37.353Z,176.00
2019-03-21T08:13:37.348Z,176.00
2019-03-21T08:14:37.364Z,172.00
2019-03-21T08:15:37.970Z,160.00
2019-03-21T08:16:37.409Z,176.00
2019-03-21T08:17:37.294Z,176.00
2019-03-21T08:18:37.349Z,168.00
2019-03-21T08:19:37.342Z,168.00
2019-03-21T08:20:37.264Z,176.00
2019-03-21T08:21:37.266Z,140.00
2019-03-21T08:22:37.258Z,176.00
2019-03-21T08:23:37.235Z,168.00
2019-03-21T08:24:37.236Z,168.00
2019-03-21T08:25:37.200Z,180.00
2019-03-21T08:26:37.779Z,180.00
2019-03-21T08:27:37.187Z,180.00
2019-03-21T08:28:37.175Z,180.00
2019-03-21T08:29:37.173Z,184.00
2019-03-21T08:30:37.154Z,180.00
2019-03-21T08:31:37.134Z,180.00
2019-03-21T08:32:37.183Z,180.00
2019-03-21T08:33:37.118Z,180.00
2019-03-21T08:34:37.098Z,180.00
2019-03-21T08:35:37.727Z,180.00
2019-03-21T08:36:37.072Z,184.00
2019-03-21T08:37:37.077Z,180.00
2019-03-21T08:38:37.533Z,180.00
2019-03-21T08:39:37.036Z,176.00
2019-03-21T08:40:37.141Z,184.00
2019-03-21T08:41:37.028Z,180.00
2019-03-21T08:42:37.133Z,180.00
2019-03-21T08:43:38.028Z,180.00
2019-03-21T08:44:37.014Z,180.00
2019-03-21T08:45:37.031Z,180.00
2019-03-21T08:46:36.980Z,184.00
2019-03-21T08:47:37.236Z,160.00
2019-03-21T08:48:36.956Z,176.00
2019-03-21T08:49:36.936Z,188.00
2019-03-21T08:50:36.974Z,188.00
2019-03-21T08:51:36.954Z,192.00
2019-03-21T08:52:36.932Z,192.00
2019-03-21T08:53:36.885Z,192.00
2019-03-21T08:54:36.915Z,188.00
2019-03-21T08:55:36.881Z,184.00
2019-03-21T08:56:36.857Z,188.00
2019-03-21T08:57:36.847Z,192.00
2019-03-21T08:58:36.837Z,192.00
2019-03-21T08:59:36.819Z,192.00
2019-03-21T09:00:36.849Z,188.00
2019-03-21T09:01:36.799Z,192.00
2019-03-21T09:02:36.800Z,192.00
2019-03-21T09:03:36.788Z,192.00
2019-03-21T09:04:36.757Z,196.00
2019-03-21T09:05:36.769Z,196.00
2019-03-21T09:06:37.730Z,192.00
2019-03-21T09:07:36.740Z,196.00
2019-03-21T09:08:36.756Z,196.00
2019-03-21T09:09:36.718Z,200.00
2019-03-21T09:10:36.721Z,196.00
2019-03-21T09:11:36.749Z,196.00
2019-03-21T09:12:37.232Z,200.00
2019-03-21T09:13:37.603Z,200.00
2019-03-21T09:14:36.647Z,200.00
2019-03-21T09:15:36.646Z,196.00
2019-03-21T09:16:37.224Z,200.00
2019-03-21T09:17:36.617Z,196.00
2019-03-21T09:18:36.670Z,196.00
2019-03-21T09:19:36.598Z,196.00
2019-03-21T09:20:36.628Z,200.00
2019-03-21T09:21:37.227Z,200.00
2019-03-21T09:22:36.581Z,196.00
2019-03-21T09:23:36.550Z,196.00
2019-03-21T09:24:37.117Z,200.00
2019-03-21T09:25:36.532Z,200.00
2019-03-21T09:26:36.518Z,200.00
2019-03-21T09:27:36.509Z,196.00
2019-03-21T09:28:36.510Z,196.00
2019-03-21T09:29:36.487Z,196.00
2019-03-21T09:30:36.600Z,196.00
2019-03-21T09:31:37.232Z,200.00
2019-03-21T09:32:36.460Z,200.00
2019-03-21T09:33:36.448Z,196.00
2019-03-21T09:34:37.338Z,200.00
2019-03-21T09:35:36.538Z,200.00
2019-03-21T09:36:36.408Z,200.00
2019-03-21T09:37:36.393Z,192.00
2019-03-21T09:38:36.386Z,188.00
2019-03-21T09:39:36.455Z,192.00
2019-03-21T09:40:36.467Z,192.00
2019-03-21T09:41:36.335Z,196.00
2019-03-21T09:42:36.346Z,200.00
2019-03-21T09:43:36.326Z,196.00
2019-03-21T09:44:36.313Z,188.00
2019-03-21T09:45:36.318Z,188.00
2019-03-21T09:46:36.307Z,192.00
2019-03-21T09:47:36.276Z,188.00
2019-03-21T09:48:36.280Z,188.00
2019-03-21T09:49:36.256Z,192.00
2019-03-21T09:50:36.264Z,192.00
2019-03-21T09:51:36.236Z,196.00
2019-03-21T09:52:36.242Z,204.00
2019-03-21T09:53:36.265Z,204.00
2019-03-21T09:54:36.279Z,204.00
2019-03-21T09:55:36.202Z,204.00
2019-03-21T09:56:36.188Z,204.00
2019-03-21T09:57:36.179Z,200.00
2019-03-21T09:58:36.163Z,200.00
2019-03-21T09:59:36.156Z,196.00
2019-03-21T10:00:36.133Z,196.00
2019-03-21T10:01:36.135Z,196.00
2019-03-21T10:02:36.122Z,200.00
2019-03-21T10:03:36.171Z,204.00
2019-03-21T10:04:36.085Z,200.00
2019-03-21T10:05:36.194Z,204.00
2019-03-21T10:06:36.068Z,196.00
2019-03-21T10:07:36.044Z,208.00
2019-03-21T10:08:36.040Z,208.00
2019-03-21T10:09:36.055Z,204.00
2019-03-21T10:10:36.109Z,204.00
2019-03-21T10:11:36.019Z,204.00
2019-03-21T10:12:36.011Z,208.00
2019-03-21T10:13:36.008Z,204.00
2019-03-21T10:14:35.969Z,208.00
2019-03-21T10:15:35.961Z,204.00
2019-03-21T10:16:35.964Z,204.00
2019-03-21T10:17:37.173Z,204.00
2019-03-21T10:18:36.177Z,208.00
2019-03-21T10:19:35.926Z,204.00
2019-03-21T10:20:35.906Z,204.00
2019-03-21T10:21:43.382Z,204.00
2019-03-21T10:22:35.890Z,200.00
2019-03-21T10:23:35.868Z,204.00
2019-03-21T10:24:35.862Z,204.00
2019-03-21T10:25:35.867Z,204.00
2019-03-21T10:26:35.856Z,208.00
2019-03-21T10:27:35.848Z,208.00
2019-03-21T10:28:35.836Z,208.00
2019-03-21T10:29:35.802Z,204.00
2019-03-21T10:30:35.898Z,204.00
2019-03-21T10:31:35.794Z,204.00
2019-03-21T10:32:35.769Z,204.00
2019-03-21T10:33:35.768Z,200.00
2019-03-21T10:34:35.807Z,204.00
2019-03-21T10:35:35.734Z,200.00
2019-03-21T10:36:35.756Z,200.00
2019-03-21T10:37:35.736Z,196.00
2019-03-21T10:38:35.703Z,200.00
2019-03-21T10:39:35.702Z,204.00
2019-03-21T10:40:35.676Z,204.00
2019-03-21T10:41:35.687Z,208.00
2019-03-21T10:42:35.656Z,208.00
2019-03-21T10:43:35.642Z,208.00
2019-03-21T10:44:35.640Z,212.00
2019-03-21T10:45:35.629Z,208.00
2019-03-21T10:46:35.628Z,208.00
2019-03-21T10:47:35.601Z,212.00
2019-03-21T10:48:35.599Z,208.00
2019-03-21T10:49:35.593Z,212.00
2019-03-21T10:50:35.595Z,212.00
2019-03-21T10:51:35.569Z,212.00
2019-03-21T10:52:35.578Z,212.00
2019-03-21T10:53:35.537Z,212.00
2019-03-21T10:54:35.777Z,212.00
2019-03-21T10:55:35.514Z,212.00
2019-03-21T10:56:35.517Z,208.00
2019-03-21T10:57:35.505Z,212.00
2019-03-21T10:58:35.488Z,212.00
2019-03-21T10:59:35.474Z,216.00
2019-03-21T11:00:35.742Z,216.00
2019-03-21T11:01:35.460Z,216.00
2019-03-21T11:02:35.431Z,216.00
2019-03-21T11:03:35.428Z,216.00
2019-03-21T11:04:35.420Z,212.00
2019-03-21T11:05:35.401Z,212.00
2019-03-21T11:06:35.438Z,212.00
2019-03-21T11:07:35.389Z,216.00
2019-03-21T11:08:35.369Z,204.00
2019-03-21T11:09:35.374Z,212.00
2019-03-21T11:10:35.348Z,208.00
2019-03-21T11:11:35.388Z,208.00
2019-03-21T11:12:35.353Z,208.00
2019-03-21T11:13:35.315Z,212.00
2019-03-21T11:14:35.361Z,208.00
2019-03-21T11:15:35.338Z,212.00
2019-03-21T11:16:35.320Z,204.00
2019-03-21T11:17:35.264Z,216.00
2019-03-21T11:18:36.344Z,220.00
2019-03-21T11:19:35.243Z,220.00
2019-03-21T11:20:35.245Z,216.00
2019-03-21T11:21:35.239Z,216.00
2019-03-21T11:22:35.314Z,216.00
2019-03-21T11:23:35.222Z,220.00
2019-03-21T11:24:35.202Z,220.00
2019-03-21T11:25:35.212Z,212.00
2019-03-21T11:26:35.199Z,208.00
2019-03-21T11:27:35.179Z,228.00
2019-03-21T11:28:35.151Z,228.00
2019-03-21T11:29:35.170Z,224.00
2019-03-21T11:30:35.155Z,228.00
2019-03-21T11:31:35.145Z,228.00
2019-03-21T11:32:35.145Z,232.00
2019-03-21T11:33:35.103Z,228.00
2019-03-21T11:34:35.092Z,224.00
2019-03-21T11:35:35.078Z,228.00
2019-03-21T11:36:38.667Z,232.00
2019-03-21T11:37:35.050Z,232.00
2019-03-21T11:38:35.055Z,236.00
2019-03-21T11:39:35.043Z,248.00
2019-03-21T11:40:35.116Z,248.00
2019-03-21T11:41:34.999Z,252.00
2019-03-21T11:42:35.030Z,252.00
2019-03-21T11:43:35.045Z,252.00
2019-03-21T11:44:35.017Z,252.00
2019-03-21T11:45:34.966Z,256.00
2019-03-21T11:46:35.856Z,256.00
2019-03-21T11:47:41.600Z,260.00
2019-03-21T11:48:34.945Z,260.00
2019-03-21T11:49:34.945Z,260.00
2019-03-21T11:50:34.908Z,264.00
2019-03-21T11:51:34.980Z,268.00
2019-03-21T11:52:34.914Z,268.00
2019-03-21T11:53:34.876Z,268.00
2019-03-21T11:54:34.857Z,268.00
2019-03-21T11:55:34.850Z,272.00
2019-03-21T11:56:34.845Z,272.00
2019-03-21T11:57:35.672Z,264.00
2019-03-21T11:58:34.822Z,276.00
2019-03-21T11:59:46.500Z,276.00
2019-03-21T12:00:42.734Z,276.00
2019-03-21T12:01:34.813Z,280.00
2019-03-21T12:02:34.789Z,284.00
2019-03-21T12:03:34.788Z,280.00
2019-03-21T12:04:34.736Z,280.00
2019-03-21T12:05:34.733Z,284.00
2019-03-21T12:06:34.746Z,288.00
2019-03-21T12:07:34.723Z,284.00
2019-03-21T12:08:34.719Z,288.00
2019-03-21T12:09:34.729Z,288.00
2019-03-21T12:10:34.689Z,292.00
2019-03-21T12:11:34.668Z,288.00
2019-03-21T12:12:34.686Z,284.00
2019-03-21T12:13:34.736Z,296.00
2019-03-21T12:14:34.672Z,292.00
2019-03-21T12:15:34.638Z,292.00
2019-03-21T12:16:34.607Z,296.00
2019-03-21T12:17:34.607Z,264.00
2019-03-21T12:18:34.614Z,284.00
2019-03-21T12:19:34.681Z,300.00
2019-03-21T12:20:34.566Z,304.00
2019-03-21T12:21:34.557Z,296.00
2019-03-21T12:22:34.534Z,300.00
2019-03-21T12:23:34.558Z,312.00
2019-03-21T12:24:34.540Z,316.00
2019-03-21T12:25:34.722Z,324.00
2019-03-21T12:26:34.518Z,328.00
2019-03-21T12:27:34.495Z,332.00
2019-03-21T12:28:34.521Z,336.00
2019-03-21T12:29:34.465Z,340.00
2019-03-21T12:30:34.455Z,344.00
2019-03-21T12:31:34.447Z,352.00
2019-03-21T12:32:34.440Z,360.00
2019-03-21T12:33:34.430Z,364.00
2019-03-21T12:34:34.492Z,372.00
2019-03-21T12:35:34.405Z,376.00
2019-03-21T12:36:35.358Z,384.00
2019-03-21T12:37:34.377Z,388.00
2019-03-21T12:38:34.384Z,400.00
2019-03-21T12:39:34.369Z,412.00
2019-03-21T12:40:34.343Z,368.00
2019-03-21T12:41:34.339Z,436.00
2019-03-21T12:42:34.364Z,420.00
2019-03-21T12:43:34.327Z,436.00
2019-03-21T12:44:34.311Z,452.00
2019-03-21T12:45:34.331Z,480.00
2019-03-21T12:46:34.296Z,508.00
2019-03-21T12:47:34.268Z,540.00
2019-03-21T12:48:34.272Z,560.00
2019-03-21T12:49:34.244Z,564.00
2019-03-21T12:50:34.328Z,580.00
2019-03-21T12:51:34.217Z,588.00